Time;durP1;ratioP1;P1;durP2;ratioP2;P2;SDS_P1;SDS_P2;PMS_P1;PMS_P2;Temp;Humidity;BMP_temperature;BMP_pressure;BME280_temperature;BME280_humidity;BME280_pressure;Samples;Min_cycle;Max_cycle;Signal;HPM_P1;HPM_P2
2021/05/11 00:00:44;;;;;;;;;;;;;;;;;;5073160;28;19924;-55
2021/05/11 00:03:10;;;;;;;;;;;;;;;;;;5074899;28;19912;-52
2021/05/11 00:05:35;;;;;;;;;;;;;;;;;;5074617;28;19977;-54
2021/05/11 00:08:00;;;;;;;;;;;;;;;;;;5074944;28;20386;-51
2021/05/11 00:10:25;;;;;;;;;;;;;;;;;;5073813;28;20257;-53
2021/05/11 00:12:51;;;;;;;;;;;;;;;;;;5074529;28;20271;-56
2021/05/11 00:15:16;;;;;;;;;;;;;;;;;;5074890;28;20271;-55
2021/05/11 00:17:42;;;;;;;;;;;;;;;;;;5074488;28;19908;-55
2021/05/11 00:20:07;;;;;;;;;;;;;;;;;;5073598;28;19924;-55
2021/05/11 00:22:32;;;;;;;;;;;;;;;;;;5073469;28;19919;-55
2021/05/11 00:24:58;;;;;;;;;;;;;;;;;;5074211;28;20425;-52
2021/05/11 00:27:23;;;;;;;;;;;;;;;;;;5074950;28;19978;-56
2021/05/11 00:29:48;;;;;;;;;;;;;;;;;;5055907;28;19960;-53
2021/05/11 00:32:13;;;;;;;;;;;;;;;;;;5073428;28;19912;-54
2021/05/11 00:34:39;;;;;;;;;;;;;;;;;;5072960;28;19913;-55
2021/05/11 00:37:04;;;;;;;;;;;;;;;;;;5074151;28;19908;-53
2021/05/11 00:39:29;;;;;;;;;;;;;;;;;;5074358;28;19920;-55
2021/05/11 00:41:54;;;;;;;;;;;;;;;;;;5073831;28;19912;-55
2021/05/11 00:44:20;;;;;;;;;;;;;;;;;;5072818;28;19913;-55
2021/05/11 00:46:53;;;;;;;;;;;;;;;;;;5073654;28;19973;-54
2021/05/11 00:49:18;;;;;;;;;;;;;;;;;;5074213;28;19913;-53
2021/05/11 00:51:44;;;;;;;;;;;;;;;;;;5073796;28;19935;-55
2021/05/11 00:54:09;;;;;;;;;;;;;;;;;;5075120;28;19950;-55
2021/05/11 00:56:34;;;;;;;;;;;;;;;;;;5073817;28;20007;-54
2021/05/11 00:58:59;;;;;;;;;;;;;;;;;;5072359;28;19921;-56
2021/05/11 01:01:25;;;;;;;;;;;;;;;;;;5074486;28;19916;-56
2021/05/11 01:03:50;;;;;;;;;;;;;;;;;;5072394;28;20424;-55
2021/05/11 01:06:15;;;;;;;;;;;;;;;;;;5074525;28;19974;-56
2021/05/11 01:08:40;;;;;;;;;;;;;;;;;;5072459;28;20340;-55
2021/05/11 01:11:06;;;;;;;;;;;;;;;;;;5073639;28;19920;-53
2021/05/11 01:13:31;;;;;;;;;;;;;;;;;;5072317;28;20394;-51
2021/05/11 01:15:56;;;;;;;;;;;;;;;;;;5072109;28;19919;-53
2021/05/11 01:18:28;;;;;;;;;;;;;;;;;;5055660;28;19916;-52
2021/05/11 01:20:56;;;;;;;;;;;;;;;;;;5071897;28;20019;-54
2021/05/11 01:23:42;;;;;;;;;;;;;;;;;;5073187;28;19912;-53
2021/05/11 01:26:13;;;;;;;;;;;;;;;;;;5072998;28;20291;-53
2021/05/11 01:45:34;;;;;;;;;;;;;;;;;;5071381;28;19912;-55
2021/05/11 01:50:16;;;;;;;;;;;;;;;;;;5073105;28;19927;-56
2021/05/11 01:52:54;;;;;;;;;;;;;;;;;;5072987;28;20376;-56
2021/05/11 02:25:18;;;;;;;;;;;;;;;;;;5051251;28;19975;-53
2021/05/11 02:27:44;;;;;;;;;;;;;;;;;;5051452;28;20325;-52
2021/05/11 02:30:10;;;;;;;;;;;;;;;;;;5052279;28;20372;-51
2021/05/11 02:32:35;;;;;;;;;;;;;;;;;;5052310;28;20441;-55
2021/05/11 02:35:00;;;;;;;;;;;;;;;;;;5050668;28;19999;-53
2021/05/11 02:37:25;;;;;;;;;;;;;;;;;;5067953;28;19936;-53
2021/05/11 02:39:51;;;;;;;;;;;;;;;;;;5050894;28;19932;-56
2021/05/11 02:42:16;;;;;;;;;;;;;;;;;;5051877;28;20356;-53
2021/05/11 02:44:44;;;;;;;;;;;;;;;;;;5052227;28;20391;-54
2021/05/11 02:47:09;;;;;;;;;;;;;;;;;;5051796;28;20349;-55
2021/05/11 02:49:38;;;;;;;;;;;;;;;;;;5052392;28;19912;-52
2021/05/11 02:52:03;;;;;;;;;;;;;;;;;;5052385;28;19917;-53
2021/05/11 02:54:28;;;;;;;;;;;;;;;;;;5051889;28;20418;-54
2021/05/11 02:56:53;;;;;;;;;;;;;;;;;;5051134;28;19913;-54
2021/05/11 02:59:19;;;;;;;;;;;;;;;;;;5051621;28;19920;-53
2021/05/11 03:01:44;;;;;;;;;;;;;;;;;;5052244;28;20349;-53
2021/05/11 03:04:09;;;;;;;;;;;;;;;;;;5051986;28;19909;-54
2021/05/11 03:06:34;;;;;;;;;;;;;;;;;;5050841;28;20292;-54
2021/05/11 03:08:59;;;;;;;;;;;;;;;;;;5053539;28;19974;-55
2021/05/11 03:11:25;;;;;;;;;;;;;;;;;;5055883;28;19959;-54
2021/05/11 03:13:50;;;;;;;;;;;;;;;;;;5055723;28;20238;-55
2021/05/11 03:16:16;;;;;;;;;;;;;;;;;;5055256;28;19920;-53
2021/05/11 03:18:41;;;;;;;;;;;;;;;;;;5054642;28;19991;-54
2021/05/11 03:21:07;;;;;;;;;;;;;;;;;;5054091;28;20012;-54
2021/05/11 03:23:32;;;;;;;;;;;;;;;;;;5054568;28;19995;-54
2021/05/11 03:25:57;;;;;;;;;;;;;;;;;;5055678;28;19921;-56
2021/05/11 03:28:22;;;;;;;;;;;;;;;;;;5055277;28;19919;-53
2021/05/11 03:30:47;;;;;;;;;;;;;;;;;;5055411;28;19929;-55
2021/05/11 03:33:13;;;;;;;;;;;;;;;;;;5055590;28;19912;-54
2021/05/11 03:35:38;;;;;;;;;;;;;;;;;;5055361;28;20357;-56
2021/05/11 03:38:05;;;;;;;;;;;;;;;;;;5055305;28;19920;-52
2021/05/11 03:40:30;;;;;;;;;;;;;;;;;;5054005;28;19927;-54
2021/05/11 03:43:04;;;;;;;;;;;;;;;;;;5055435;28;19912;-55
2021/05/11 03:45:35;;;;;;;;;;;;;;;;;;5053999;28;20002;-56
2021/05/11 03:48:00;;;;;;;;;;;;;;;;;;5053801;28;20376;-56
2021/05/11 03:50:26;;;;;;;;;;;;;;;;;;5054671;28;19951;-54
2021/05/11 03:52:51;;;;;;;;;;;;;;;;;;5054837;28;20004;-53
2021/05/11 03:55:16;;;;;;;;;;;;;;;;;;5054828;28;19959;-55
2021/05/11 03:57:41;;;;;;;;;;;;;;;;;;5055192;28;20361;-53
2021/05/11 04:00:07;;;;;;;;;;;;;;;;;;5054477;28;20032;-55
2021/05/11 04:02:32;;;;;;;;;;;;;;;;;;5054808;28;20379;-55
2021/05/11 04:04:58;;;;;;;;;;;;;;;;;;5055066;28;20244;-56
2021/05/11 04:07:23;;;;;;;;;;;;;;;;;;5054493;28;20011;-56
2021/05/11 04:09:53;;;;;;;;;;;;;;;;;;5053765;28;20004;-56
2021/05/11 04:17:33;;;;;;;;;;;;;;;;;;5054853;28;19912;-56
2021/05/11 04:19:58;;;;;;;;;;;;;;;;;;5052505;28;20361;-55
2021/05/11 04:22:24;;;;;;;;;;;;;;;;;;5052864;28;20428;-56
2021/05/11 04:24:49;;;;;;;;;;;;;;;;;;5054411;28;20288;-56
2021/05/11 04:27:14;;;;;;;;;;;;;;;;;;5054208;28;19919;-56
2021/05/11 04:29:39;;;;;;;;;;;;;;;;;;5054228;28;19920;-55
2021/05/11 04:32:05;;;;;;;;;;;;;;;;;;5052908;28;19912;-54
2021/05/11 04:34:30;;;;;;;;;;;;;;;;;;5052762;28;19909;-55
2021/05/11 04:36:55;;;;;;;;;;;;;;;;;;5053054;28;19960;-54
2021/05/11 04:39:20;;;;;;;;;;;;;;;;;;5053866;28;20257;-55
2021/05/11 04:41:45;;;;;;;;;;;;;;;;;;5054115;28;20442;-55
2021/05/11 04:44:11;;;;;;;;;;;;;;;;;;5052605;28;20369;-54
2021/05/11 04:46:55;;;;;;;;;;;;;;;;;;5052772;28;20008;-53
2021/05/11 04:49:20;;;;;;;;;;;;;;;;;;5052866;28;19962;-53
2021/05/11 04:51:46;;;;;;;;;;;;;;;;;;5052897;28;19916;-54
2021/05/11 04:54:12;;;;;;;;;;;;;;;;;;5051951;28;19962;-50
2021/05/11 04:56:37;;;;;;;;;;;;;;;;;;5053938;28;19913;-54
2021/05/11 04:59:02;;;;;;;;;;;;;;;;;;5054318;28;19913;-53
2021/05/11 05:01:28;;;;;;;;;;;;;;;;;;5073140;28;19912;-54
2021/05/11 05:03:56;;;;;;;;;;;;;;;;;;5056026;28;20297;-56
2021/05/11 05:06:21;;;;;;;;;;;;;;;;;;5073623;28;19916;-55
2021/05/11 05:08:47;;;;;;;;;;;;;;;;;;5073461;28;19935;-55
2021/05/11 05:11:12;;;;;;;;;;;;;;;;;;5072097;28;19913;-55
2021/05/11 05:13:37;;;;;;;;;;;;;;;;;;5071966;28;20053;-52
2021/05/11 05:16:02;;;;;;;;;;;;;;;;;;5073364;28;19978;-52
2021/05/11 05:18:28;;;;;;;;;;;;;;;;;;5073091;28;20276;-54
2021/05/11 05:20:53;;;;;;;;;;;;;;;;;;5073081;28;20257;-54
2021/05/11 05:23:19;;;;;;;;;;;;;;;;;;5071760;28;19913;-52
2021/05/11 05:25:45;;;;;;;;;;;;;;;;;;5073006;28;20378;-55
2021/05/11 05:28:12;;;;;;;;;;;;;;;;;;5073098;28;19918;-56
2021/05/11 05:30:37;;;;;;;;;;;;;;;;;;5073152;28;20000;-50
2021/05/11 05:33:02;;;;;;;;;;;;;;;;;;5072622;28;19944;-52
2021/05/11 05:35:28;;;;;;;;;;;;;;;;;;5072539;28;19923;-53
2021/05/11 05:37:53;;;;;;;;;;;;;;;;;;5071792;28;19908;-55
2021/05/11 05:40:20;;;;;;;;;;;;;;;;;;5071059;28;19920;-53
2021/05/11 05:42:46;;;;;;;;;;;;;;;;;;5073164;28;19919;-53
2021/05/11 05:45:11;;;;;;;;;;;;;;;;;;5073470;28;19912;-53
2021/05/11 05:47:37;;;;;;;;;;;;;;;;;;5071378;28;19998;-55
2021/05/11 05:50:06;;;;;;;;;;;;;;;;;;5072710;28;19916;-55
2021/05/11 05:52:37;;;;;;;;;;;;;;;;;;5070870;28;19913;-54
2021/05/11 05:55:02;;;;;;;;;;;;;;;;;;5055617;28;19913;-54
2021/05/11 05:57:28;;;;;;;;;;;;;;;;;;5071733;28;19923;-52
2021/05/11 05:59:54;;;;;;;;;;;;;;;;;;5073140;28;20383;-51
2021/05/11 06:02:22;;;;;;;;;;;;;;;;;;5071733;28;19987;-53
2021/05/11 06:04:47;;;;;;;;;;;;;;;;;;5073109;28;19919;-56
2021/05/11 06:07:13;;;;;;;;;;;;;;;;;;5072162;28;20322;-54
2021/05/11 06:09:38;;;;;;;;;;;;;;;;;;5072618;28;20368;-54
2021/05/11 06:12:19;;;;;;;;;;;;;;;;;;5072012;28;20261;-53
2021/05/11 06:17:33;;;;;;;;;;;;;;;;;;5063654;28;20273;-52
2021/05/11 06:19:58;;;;;;;;;;;;;;;;;;5072958;28;19931;-53
2021/05/11 06:22:24;;;;;;;;;;;;;;;;;;5072578;28;20284;-51
2021/05/11 06:24:49;;;;;;;;;;;;;;;;;;5055448;28;20284;-52
2021/05/11 06:27:14;;;;;;;;;;;;;;;;;;5072083;28;19908;-53
2021/05/11 06:29:41;;;;;;;;;;;;;;;;;;5069255;28;20030;-54
2021/05/11 06:32:06;;;;;;;;;;;;;;;;;;5073504;28;19954;-54
2021/05/11 06:34:32;;;;;;;;;;;;;;;;;;5073013;28;19913;-53
2021/05/11 06:36:57;;;;;;;;;;;;;;;;;;5072741;28;20372;-52
2021/05/11 06:39:22;;;;;;;;;;;;;;;;;;5070571;28;19963;-55
2021/05/11 06:41:52;;;;;;;;;;;;;;;;;;5072316;28;19916;-53
2021/05/11 06:44:51;;;;;;;;;;;;;;;;;;5063106;28;20000;-57
2021/05/11 06:47:52;;;;;;;;;;;;;;;;;;5068127;28;20364;-55
2021/05/11 06:50:37;;;;;;;;;;;;;;;;;;5076183;28;19921;-56
2021/05/11 06:55:27;;;;;;;;;;;;;;;;;;5074799;28;20356;-55
2021/05/11 06:57:54;;;;;;;;;;;;;;;;;;5076445;28;19920;-55
2021/05/11 07:00:19;;;;;;;;;;;;;;;;;;5080505;28;19920;-51
2021/05/11 07:02:45;;;;;;;;;;;;;;;;;;5078391;28;19912;-51
2021/05/11 07:05:10;;;;;;;;;;;;;;;;;;5075575;28;20366;-54
2021/05/11 07:07:36;;;;;;;;;;;;;;;;;;5075520;28;20368;-57
2021/05/11 07:15:21;;;;;;;;;;;;;;;;;;5077238;28;19913;-56
2021/05/11 07:17:46;;;;;;;;;;;;;;;;;;5078941;28;19952;-52
2021/05/11 07:20:11;;;;;;;;;;;;;;;;;;5077258;28;19917;-53
2021/05/11 07:22:36;;;;;;;;;;;;;;;;;;5075916;28;20305;-55
2021/05/11 07:25:06;;;;;;;;;;;;;;;;;;5076437;28;20368;-55
2021/05/11 07:27:48;;;;;;;;;;;;;;;;;;5075214;28;19958;-54
2021/05/11 07:30:15;;;;;;;;;;;;;;;;;;5073905;28;20237;-57
2021/05/11 07:32:41;;;;;;;;;;;;;;;;;;5075060;28;19912;-55
2021/05/11 07:35:06;;;;;;;;;;;;;;;;;;5075500;28;19948;-53
2021/05/11 07:37:31;;;;;;;;;;;;;;;;;;5047906;28;20017;-53
2021/05/11 07:39:57;;;;;;;;;;;;;;;;;;5097984;28;20292;-55
2021/05/11 07:42:22;;;;;;;;;;;;;;;;;;5074843;28;19916;-56
2021/05/11 07:44:50;;;;;;;;;;;;;;;;;;5073595;28;19920;-55
2021/05/11 07:47:55;;;;;;;;;;;;;;;;;;5074779;28;19913;-52
2021/05/11 08:04:14;;;;;;;;;;;;;;;;;;5074034;28;20394;-55
2021/05/11 08:17:22;;;;;;;;;;;;;;;;;;5074211;28;20347;-53
2021/05/11 08:30:22;;;;;;;;;;;;;;;;;;5073203;28;19912;-54
2021/05/11 08:32:47;;;;;;;;;;;;;;;;;;5073821;28;19923;-53
2021/05/11 08:35:12;;;;;;;;;;;;;;;;;;5074329;28;20302;-54
2021/05/11 08:37:38;;;;;;;;;;;;;;;;;;5073698;28;19916;-53
2021/05/11 08:40:03;;;;;;;;;;;;;;;;;;5072825;28;19921;-53
2021/05/11 08:42:29;;;;;;;;;;;;;;;;;;5072611;28;20023;-54
2021/05/11 08:44:54;;;;;;;;;;;;;;;;;;5073703;28;20364;-53
2021/05/11 08:47:20;;;;;;;;;;;;;;;;;;5074086;28;20244;-56
2021/05/11 08:49:46;;;;;;;;;;;;;;;;;;5074074;28;20394;-52
2021/05/11 09:08:09;;;;;;;;;;;;;;;;;;5071268;28;19959;-55
2021/05/11 09:26:41;;;;;;;;;;;;;;;;;;5069339;28;19912;-54
2021/05/11 09:29:13;;;;;;;;;;;;;;;;;;5069636;28;19912;-55
2021/05/11 09:34:31;;;;;;;;;;;;;;;;;;5067446;28;19966;-54
2021/05/11 09:50:53;;;;;;;;;;;;;;;;;;5064830;28;20036;-55
2021/05/11 10:13:16;;;;;;;;;;;;;;;;;;5066423;28;20055;-55
2021/05/11 10:31:45;;;;;;;;;;;;;;;;;;5071823;28;19916;-56
2021/05/11 10:42:12;;;;;;;;;;;;;;;;;;5072831;28;20322;-53
2021/05/11 10:45:03;;;;;;;;;;;;;;;;;;5074506;28;19951;-54
2021/05/11 10:47:29;;;;;;;;;;;;;;;;;;5069716;28;19993;-53
2021/05/11 10:49:54;;;;;;;;;;;;;;;;;;5072480;28;20003;-51
2021/05/11 10:52:28;;;;;;;;;;;;;;;;;;5072538;28;19966;-52
2021/05/11 10:54:57;;;;;;;;;;;;;;;;;;5069573;28;19913;-54
2021/05/11 10:57:22;;;;;;;;;;;;;;;;;;5071737;28;19916;-52
2021/05/11 10:59:57;;;;;;;;;;;;;;;;;;5071917;28;20299;-59
2021/05/11 11:03:05;;;;;;;;;;;;;;;;;;5072171;28;19912;-53
2021/05/11 11:05:11;;;;;;;;;;;;;;;;;;5071854;28;19912;-59
2021/05/11 11:07:36;;;;;;;;;;;;;;;;;;5071904;28;20458;-56
2021/05/11 11:10:02;;;;;;;;;;;;;;;;;;5071668;28;19916;-55
2021/05/11 11:12:27;;;;;;;;;;;;;;;;;;5071512;28;19916;-56
2021/05/11 11:14:52;;;;;;;;;;;;;;;;;;5070316;28;20356;-56
2021/05/11 11:17:17;;;;;;;;;;;;;;;;;;5072359;28;20364;-55
2021/05/11 11:19:42;;;;;;;;;;;;;;;;;;5071947;28;20370;-53
2021/05/11 11:24:52;;;;;;;;;;;;;;;;;;5069254;28;19912;-56
2021/05/11 11:27:17;;;;;;;;;;;;;;;;;;5070816;28;19989;-57
2021/05/11 11:29:43;;;;;;;;;;;;;;;;;;5072591;28;19915;-56
2021/05/11 11:32:08;;;;;;;;;;;;;;;;;;5074778;28;19984;-56
2021/05/11 11:34:35;;;;;;;;;;;;;;;;;;5075912;28;19912;-56
2021/05/11 11:37:01;;;;;;;;;;;;;;;;;;5073785;28;19991;-56
2021/05/11 11:39:27;;;;;;;;;;;;;;;;;;5074650;28;19920;-55
2021/05/11 11:41:52;;;;;;;;;;;;;;;;;;5074642;28;19912;-55
2021/05/11 11:44:17;;;;;;;;;;;;;;;;;;5074798;28;20019;-55
2021/05/11 11:46:42;;;;;;;;;;;;;;;;;;5074510;28;19920;-52
2021/05/11 11:49:11;;;;;;;;;;;;;;;;;;5074802;28;19920;-55
2021/05/11 11:51:37;;;;;;;;;;;;;;;;;;5074888;28;20368;-55
2021/05/11 11:54:02;;;;;;;;;;;;;;;;;;5074531;28;19987;-55
2021/05/11 11:59:14;;;;;;;;;;;;;;;;;;5074238;28;19920;-52
2021/05/11 12:01:40;;;;;;;;;;;;;;;;;;5075654;28;19912;-56
2021/05/11 12:04:05;;;;;;;;;;;;;;;;;;5073977;28;19916;-55
2021/05/11 12:06:30;;;;;;;;;;;;;;;;;;5075510;28;20011;-54
2021/05/11 12:08:56;;;;;;;;;;;;;;;;;;5074628;28;20436;-54
2021/05/11 12:11:21;;;;;;;;;;;;;;;;;;5074856;28;20282;-55
2021/05/11 12:13:46;;;;;;;;;;;;;;;;;;5074014;28;19913;-54
2021/05/11 12:16:12;;;;;;;;;;;;;;;;;;5054807;28;19968;-55
2021/05/11 12:18:37;;;;;;;;;;;;;;;;;;5068808;28;20265;-55
2021/05/11 12:21:02;;;;;;;;;;;;;;;;;;5072950;28;20387;-55
2021/05/11 12:23:28;;;;;;;;;;;;;;;;;;5073029;28;20295;-53
2021/05/11 12:25:53;;;;;;;;;;;;;;;;;;5073981;28;19974;-55
2021/05/11 12:28:18;;;;;;;;;;;;;;;;;;5074091;28;19966;-53
2021/05/11 12:30:43;;;;;;;;;;;;;;;;;;5074800;28;20280;-52
2021/05/11 12:33:09;;;;;;;;;;;;;;;;;;5074236;28;19913;-53
2021/05/11 12:35:35;;;;;;;;;;;;;;;;;;5073884;28;19959;-53
2021/05/11 12:38:03;;;;;;;;;;;;;;;;;;5073650;28;19961;-54
2021/05/11 12:40:32;;;;;;;;;;;;;;;;;;5074157;28;19978;-54
2021/05/11 12:42:58;;;;;;;;;;;;;;;;;;5073350;28;20011;-55
2021/05/11 12:45:23;;;;;;;;;;;;;;;;;;5056148;28;20019;-54
2021/05/11 12:47:50;;;;;;;;;;;;;;;;;;5074065;28;19920;-55
2021/05/11 12:50:15;;;;;;;;;;;;;;;;;;5072364;28;19913;-53
2021/05/11 12:52:41;;;;;;;;;;;;;;;;;;5072951;28;19915;-54
2021/05/11 12:55:14;;;;;;;;;;;;;;;;;;5073675;28;19919;-55
2021/05/11 12:57:42;;;;;;;;;;;;;;;;;;5072333;28;19916;-54
2021/05/11 13:00:13;;;;;;;;;;;;;;;;;;5055479;28;19920;-56
2021/05/11 13:13:49;;;;;;;;;;;;;;;;;;5072772;28;19913;-51
2021/05/11 13:17:01;;;;;;;;;;;;;;;;;;5073700;28;19912;-52
2021/05/11 13:27:28;;;;;;;;;;;;;;;;;;5072683;28;19919;-56
2021/05/11 13:30:21;;;;;;;;;;;;;;;;;;5074472;28;19916;-50
2021/05/11 13:32:56;;;;;;;;;;;;;;;;;;5074209;28;19943;-55
2021/05/11 13:35:21;;;;;;;;;;;;;;;;;;5055760;28;20046;-54
2021/05/11 13:37:47;;;;;;;;;;;;;;;;;;5073591;28;19920;-55
2021/05/11 13:40:12;;;;;;;;;;;;;;;;;;5071491;28;19920;-53
2021/05/11 13:42:37;;;;;;;;;;;;;;;;;;5072716;28;19917;-53
2021/05/11 13:45:03;;;;;;;;;;;;;;;;;;5072654;28;20006;-54
2021/05/11 13:47:28;;;;;;;;;;;;;;;;;;5073394;28;19917;-53
2021/05/11 13:49:59;;;;;;;;;;;;;;;;;;5071731;28;19909;-54
2021/05/11 13:52:25;;;;;;;;;;;;;;;;;;5072575;28;20003;-52
2021/05/11 13:54:56;;;;;;;;;;;;;;;;;;5072035;28;20003;-53
2021/05/11 14:02:44;;;;;;;;;;;;;;;;;;5072781;28;20412;-54
2021/05/11 14:05:09;;;;;;;;;;;;;;;;;;5071192;28;19917;-53
2021/05/11 14:07:34;;;;;;;;;;;;;;;;;;5054242;28;20137;-53
2021/05/11 14:10:00;;;;;;;;;;;;;;;;;;5072800;28;19920;-56
2021/05/11 14:12:25;;;;;;;;;;;;;;;;;;5072147;28;19912;-55
2021/05/11 14:14:50;;;;;;;;;;;;;;;;;;5071468;28;19912;-51
2021/05/11 14:17:15;;;;;;;;;;;;;;;;;;5070906;28;20019;-52
2021/05/11 14:19:41;;;;;;;;;;;;;;;;;;5071245;28;19920;-54
2021/05/11 14:22:06;;;;;;;;;;;;;;;;;;5070982;28;20330;-52
2021/05/11 14:24:31;;;;;;;;;;;;;;;;;;5072792;28;19935;-53
2021/05/11 14:26:56;;;;;;;;;;;;;;;;;;5072457;28;19912;-54
2021/05/11 14:29:22;;;;;;;;;;;;;;;;;;5053778;28;20034;-55
2021/05/11 14:31:47;;;;;;;;;;;;;;;;;;5072876;28;19912;-53
2021/05/11 14:34:14;;;;;;;;;;;;;;;;;;5070843;28;20335;-55
2021/05/11 14:36:39;;;;;;;;;;;;;;;;;;5072272;28;20241;-53
2021/05/11 14:39:04;;;;;;;;;;;;;;;;;;5072445;28;19908;-53
2021/05/11 14:41:29;;;;;;;;;;;;;;;;;;5070733;28;20322;-54
2021/05/11 14:43:55;;;;;;;;;;;;;;;;;;5072509;28;19920;-53
2021/05/11 14:46:20;;;;;;;;;;;;;;;;;;5070812;28;20401;-53
2021/05/11 14:48:45;;;;;;;;;;;;;;;;;;5072634;28;19913;-54
2021/05/11 14:51:11;;;;;;;;;;;;;;;;;;5070977;28;20327;-50
2021/05/11 14:53:37;;;;;;;;;;;;;;;;;;5071276;28;19955;-51
2021/05/11 14:56:02;;;;;;;;;;;;;;;;;;5071449;28;19919;-51
2021/05/11 14:58:28;;;;;;;;;;;;;;;;;;5071501;28;20367;-53
2021/05/11 15:00:53;;;;;;;;;;;;;;;;;;5071436;28;20363;-54
2021/05/11 15:03:18;;;;;;;;;;;;;;;;;;5071897;28;19970;-51
2021/05/11 15:05:44;;;;;;;;;;;;;;;;;;5074137;28;19909;-52
2021/05/11 15:08:09;;;;;;;;;;;;;;;;;;5074463;28;19927;-51
2021/05/11 15:10:34;;;;;;;;;;;;;;;;;;5074787;28;20328;-54
2021/05/11 15:13:00;;;;;;;;;;;;;;;;;;5076188;28;19919;-55
2021/05/11 15:15:25;;;;;;;;;;;;;;;;;;5073901;28;19916;-54
2021/05/11 15:20:16;;;;;;;;;;;;;;;;;;5075287;28;19932;-53
2021/05/11 15:22:41;;;;;;;;;;;;;;;;;;5075602;28;19913;-55
2021/05/11 15:25:06;;;;;;;;;;;;;;;;;;5075129;28;20284;-55
2021/05/11 15:27:32;;;;;;;;;;;;;;;;;;5075089;28;20027;-52
2021/05/11 15:29:57;;;;;;;;;;;;;;;;;;5074282;28;19908;-55
2021/05/11 15:32:22;;;;;;;;;;;;;;;;;;5057398;28;19966;-51
2021/05/11 15:34:48;;;;;;;;;;;;;;;;;;5074276;28;20299;-54
2021/05/11 15:37:13;;;;;;;;;;;;;;;;;;5075206;28;20331;-53
2021/05/11 15:39:38;;;;;;;;;;;;;;;;;;5073842;28;19925;-54
2021/05/11 15:42:04;;;;;;;;;;;;;;;;;;5057131;28;20008;-55
2021/05/11 15:44:29;;;;;;;;;;;;;;;;;;5074595;28;20003;-55
2021/05/11 15:46:54;;;;;;;;;;;;;;;;;;5074183;28;19920;-54
2021/05/11 15:49:20;;;;;;;;;;;;;;;;;;5056961;28;19912;-54
2021/05/11 15:51:45;;;;;;;;;;;;;;;;;;5075016;28;19959;-54
2021/05/11 15:54:10;;;;;;;;;;;;;;;;;;5073044;28;19978;-52
2021/05/11 15:56:36;;;;;;;;;;;;;;;;;;5073289;28;19957;-54
2021/05/11 15:59:05;;;;;;;;;;;;;;;;;;5054901;28;19919;-55
2021/05/11 16:01:30;;;;;;;;;;;;;;;;;;5072580;28;20215;-53
2021/05/11 16:03:55;;;;;;;;;;;;;;;;;;5074421;28;19912;-54
2021/05/11 16:06:20;;;;;;;;;;;;;;;;;;5071307;28;19913;-54
2021/05/11 16:08:46;;;;;;;;;;;;;;;;;;5074289;28;19943;-54
2021/05/11 16:11:11;;;;;;;;;;;;;;;;;;5074559;28;19927;-54
2021/05/11 16:13:39;;;;;;;;;;;;;;;;;;5075342;28;20003;-55
2021/05/11 16:16:05;;;;;;;;;;;;;;;;;;5074052;28;19920;-55
2021/05/11 16:18:30;;;;;;;;;;;;;;;;;;5075402;28;19971;-55
2021/05/11 16:20:56;;;;;;;;;;;;;;;;;;5074526;28;19921;-50
2021/05/11 16:23:21;;;;;;;;;;;;;;;;;;5073427;28;19919;-54
2021/05/11 16:25:46;;;;;;;;;;;;;;;;;;5074751;28;20311;-54
2021/05/11 16:28:12;;;;;;;;;;;;;;;;;;5075402;28;20408;-55
2021/05/11 16:30:40;;;;;;;;;;;;;;;;;;5073480;28;20022;-53
2021/05/11 16:33:09;;;;;;;;;;;;;;;;;;5075143;28;20272;-54
2021/05/11 16:35:34;;;;;;;;;;;;;;;;;;5073106;28;19908;-54
2021/05/11 16:37:59;;;;;;;;;;;;;;;;;;5074836;28;20356;-52
2021/05/11 16:40:25;;;;;;;;;;;;;;;;;;5073168;28;20345;-54
2021/05/11 16:42:55;;;;;;;;;;;;;;;;;;5074508;28;20391;-53
2021/05/11 16:45:20;;;;;;;;;;;;;;;;;;5074381;28;20388;-53
2021/05/11 16:47:54;;;;;;;;;;;;;;;;;;5074464;28;19909;-51
2021/05/11 16:50:20;;;;;;;;;;;;;;;;;;5072714;28;20061;-52
2021/05/11 16:52:45;;;;;;;;;;;;;;;;;;5074403;28;19912;-54
2021/05/11 16:55:10;;;;;;;;;;;;;;;;;;5056861;28;19913;-51
2021/05/11 16:57:35;;;;;;;;;;;;;;;;;;5072962;28;19912;-54
2021/05/11 17:00:01;;;;;;;;;;;;;;;;;;5072910;28;19920;-56
2021/05/11 17:02:26;;;;;;;;;;;;;;;;;;5073814;28;20379;-55
2021/05/11 17:04:51;;;;;;;;;;;;;;;;;;5072129;28;19912;-54
2021/05/11 17:07:16;;;;;;;;;;;;;;;;;;5072729;28;19999;-57
2021/05/11 17:09:42;;;;;;;;;;;;;;;;;;5073928;28;20018;-52
2021/05/11 17:12:07;;;;;;;;;;;;;;;;;;5074253;28;19967;-54
2021/05/11 17:14:33;;;;;;;;;;;;;;;;;;5073918;28;19928;-55
2021/05/11 17:16:58;;;;;;;;;;;;;;;;;;5073299;28;20265;-55
2021/05/11 17:19:23;;;;;;;;;;;;;;;;;;5073254;28;19912;-54
2021/05/11 17:21:49;;;;;;;;;;;;;;;;;;5072592;28;19924;-55
2021/05/11 17:24:15;;;;;;;;;;;;;;;;;;5072750;28;20322;-52
2021/05/11 17:26:40;;;;;;;;;;;;;;;;;;5073718;28;19917;-52
2021/05/11 17:29:07;;;;;;;;;;;;;;;;;;5073415;28;20324;-54
2021/05/11 17:31:34;;;;;;;;;;;;;;;;;;5071637;28;19920;-54
2021/05/11 17:33:59;;;;;;;;;;;;;;;;;;5073111;28;20343;-55
2021/05/11 17:36:24;;;;;;;;;;;;;;;;;;5071921;28;19924;-53
2021/05/11 17:38:49;;;;;;;;;;;;;;;;;;5073509;28;19916;-53
2021/05/11 17:41:15;;;;;;;;;;;;;;;;;;5073618;28;20272;-53
2021/05/11 17:43:40;;;;;;;;;;;;;;;;;;5073042;28;20414;-54
2021/05/11 17:46:05;;;;;;;;;;;;;;;;;;5072721;28;19919;-54
2021/05/11 17:48:38;;;;;;;;;;;;;;;;;;5073385;28;19912;-54
2021/05/11 17:51:03;;;;;;;;;;;;;;;;;;5072950;28;20318;-56
2021/05/11 17:53:28;;;;;;;;;;;;;;;;;;5071879;28;19962;-54
2021/05/11 17:55:54;;;;;;;;;;;;;;;;;;5073074;28;20006;-53
2021/05/11 17:58:19;;;;;;;;;;;;;;;;;;5054917;28;19962;-53
2021/05/11 18:00:44;;;;;;;;;;;;;;;;;;5072797;28;19971;-54
2021/05/11 18:03:09;;;;;;;;;;;;;;;;;;5073089;28;19909;-53
2021/05/11 18:05:35;;;;;;;;;;;;;;;;;;5072741;28;19912;-53
2021/05/11 18:08:01;;;;;;;;;;;;;;;;;;5073341;28;19935;-57
2021/05/11 18:10:26;;;;;;;;;;;;;;;;;;5072452;28;20272;-56
2021/05/11 18:12:51;;;;;;;;;;;;;;;;;;5073228;28;19920;-56
2021/05/11 18:15:16;;;;;;;;;;;;;;;;;;5072849;28;20011;-53
2021/05/11 18:17:42;;;;;;;;;;;;;;;;;;5073088;28;20398;-52
2021/05/11 18:20:07;;;;;;;;;;;;;;;;;;5072143;28;19921;-55
2021/05/11 18:22:32;;;;;;;;;;;;;;;;;;5073035;28;19913;-53
2021/05/11 18:24:57;;;;;;;;;;;;;;;;;;5092512;28;19959;-53
2021/05/11 18:27:23;;;;;;;;;;;;;;;;;;5093143;28;20343;-53
2021/05/11 18:29:48;;;;;;;;;;;;;;;;;;5092186;28;20364;-54
2021/05/11 18:32:13;;;;;;;;;;;;;;;;;;5092038;28;19961;-53
2021/05/11 18:34:39;;;;;;;;;;;;;;;;;;5092109;28;19916;-53
2021/05/11 18:39:34;;;;;;;;;;;;;;;;;;5093518;28;20420;-52
2021/05/11 18:41:59;;;;;;;;;;;;;;;;;;5097173;28;20290;-52
2021/05/11 18:44:26;;;;;;;;;;;;;;;;;;5096810;28;19928;-55
2021/05/11 18:46:53;;;;;;;;;;;;;;;;;;5097394;28;19912;-53
2021/05/11 18:49:18;;;;;;;;;;;;;;;;;;5096720;28;20403;-56
2021/05/11 18:51:44;;;;;;;;;;;;;;;;;;5083618;28;19916;-56
2021/05/11 18:54:09;;;;;;;;;;;;;;;;;;5076116;28;20015;-54
2021/05/11 18:56:34;;;;;;;;;;;;;;;;;;5076298;28;19913;-54
2021/05/11 18:58:59;;;;;;;;;;;;;;;;;;5074942;28;19913;-55
2021/05/11 19:01:25;;;;;;;;;;;;;;;;;;5074428;28;20397;-55
2021/05/11 19:03:50;;;;;;;;;;;;;;;;;;5075198;28;20268;-54
2021/05/11 19:06:15;;;;;;;;;;;;;;;;;;5075648;28;20318;-55
2021/05/11 19:08:40;;;;;;;;;;;;;;;;;;5075632;28;20220;-54
2021/05/11 19:11:06;;;;;;;;;;;;;;;;;;5076438;28;20352;-54
2021/05/11 19:13:31;;;;;;;;;;;;;;;;;;5080259;28;20429;-55
2021/05/11 19:15:57;;;;;;;;;;;;;;;;;;5084228;28;19909;-53
2021/05/11 19:18:22;;;;;;;;;;;;;;;;;;5078877;28;19942;-53
2021/05/11 19:20:47;;;;;;;;;;;;;;;;;;5075768;28;20019;-55
2021/05/11 19:23:12;;;;;;;;;;;;;;;;;;5073128;28;20272;-48
2021/05/11 19:25:38;;;;;;;;;;;;;;;;;;5059838;28;19921;-53
2021/05/11 19:28:03;;;;;;;;;;;;;;;;;;5060958;28;19908;-51
2021/05/11 19:30:28;;;;;;;;;;;;;;;;;;5079020;28;19917;-53
2021/05/11 19:32:55;;;;;;;;;;;;;;;;;;5081893;28;20369;-55
2021/05/11 19:35:21;;;;;;;;;;;;;;;;;;5082869;28;20002;-54
2021/05/11 19:37:46;;;;;;;;;;;;;;;;;;5085312;28;20419;-51
2021/05/11 19:40:11;;;;;;;;;;;;;;;;;;5083896;28;19924;-54
2021/05/11 19:42:36;;;;;;;;;;;;;;;;;;5078766;28;20360;-59
2021/05/11 19:45:02;;;;;;;;;;;;;;;;;;5078399;28;19913;-55
2021/05/11 19:47:27;;;;;;;;;;;;;;;;;;5082346;28;19928;-49
2021/05/11 19:49:54;;;;;;;;;;;;;;;;;;5085472;28;20340;-53
2021/05/11 19:52:19;;;;;;;;;;;;;;;;;;5075526;28;19973;-53
2021/05/11 19:54:44;;;;;;;;;;;;;;;;;;5076051;28;20280;-51
2021/05/11 19:57:09;;;;;;;;;;;;;;;;;;5076264;28;20282;-51
2021/05/11 19:59:35;;;;;;;;;;;;;;;;;;5075967;28;20330;-51
2021/05/11 20:02:01;;;;;;;;;;;;;;;;;;5074727;28;19968;-50
2021/05/11 20:04:27;;;;;;;;;;;;;;;;;;5067040;28;19912;-54
2021/05/11 20:06:52;;;;;;;;;;;;;;;;;;5074416;28;19919;-54
2021/05/11 20:09:17;;;;;;;;;;;;;;;;;;5075838;28;19944;-55
2021/05/11 20:11:49;;;;;;;;;;;;;;;;;;5073245;28;19920;-54
2021/05/11 20:14:16;;;;;;;;;;;;;;;;;;5075449;28;20391;-54
2021/05/11 20:16:42;;;;;;;;;;;;;;;;;;5075336;28;19963;-56
2021/05/11 20:19:08;;;;;;;;;;;;;;;;;;5074986;28;19916;-54
2021/05/11 20:21:33;;;;;;;;;;;;;;;;;;5075388;28;19928;-53
2021/05/11 20:23:59;;;;;;;;;;;;;;;;;;5074308;28;19916;-55
2021/05/11 20:26:24;;;;;;;;;;;;;;;;;;5074670;28;20019;-55
2021/05/11 20:28:52;;;;;;;;;;;;;;;;;;5074683;28;19919;-52